Terminal Aerodrome Forecast
Issued by NWS

Home | Current Version | Previous Version | Text Only | Print | Product List | Glossary On
Versions: 1 2 3 4 5 6 7 8 9 10 11 12 13 14 15
000
FTUS42 KMLB 232300
TAFLEE
TAF
KLEE 232340Z 2400/2424 26006KT P6SM SCT060
     FM240300 VRB02KT P6SM SKC
      TEMPO 2409/2412 5SM BR SCT007
     FM241600 16005KT P6SM FEW040=

USA.gov is the U.S. government's official web portal to all federal, state and local government web resources and services.